ホーチミン の空港の天気 - METARとTAF

タンソンニャット国際空港 (ホーチミン) ( VVTS / SGN ) - ベトナム ホーチミン市
飛行場実況気象(Metar)
観測時間10/16 14:30 ICT (10/16 07:30 UTC)
風向・風速不定 2m/s
視程10km以上
天気現象
全天の8割程度の雲 雲底高度 520m
気温35℃
湿度44%
気圧1006hPa
METARVVTS 160730Z VRB04KT 9999 BKN017 35/21 Q1006 NOSIG
過去の天気等 Google飛行場航空写真 Wunderground天気予報

過去48時間のMETAR

飛行場予報(TAF)
発表時間: 10/16 12:00 ICT (10/16 05:00 UTC)
予報対象時間: 16日13時 ICT ~ 17日19時 ICT
風向・風速不定 2m/s
視程10km以上
全天の4割程度の雲 雲底高度 520m
16日16時 ICT ~ 16日19時 ICT に一時的に
視程5000m
天気現象雷雨
全天の8割程度の雲 雲底高度 460m
少しの積乱雲 雲底高度 520m
16日19時 ICT ~ 16日20時 ICT に徐々に
風向・風速南東 5m/s
17日14時 ICT ~ 17日19時 ICT に一時的に
天気現象
全天の4割程度の雲 雲底高度 460m
少しの積乱雲 雲底高度 520m
TAF VVTS 160500Z 1606/1712 VRB03KT 9999 SCT017
TEMPO 1609/1612 5000 TSRA BKN015 FEW017CB
BECMG 1612/1613 13010KT
TEMPO 1707/1712 TS SCT015 FEW017CB